Terminal Aerodrome Forecast
Issued by NWS Cleveland, OH

Home | Current Version | Previous Version | Graphics & Text | Print | Product List | Glossary On
Versions: 1 2 3 4 5 6 7 8 9 10 11 12 13 14 15 16 17 18 19 20 21 22 23 24 25
000
FTUS41 KCLE 291100 RRA
TAFYNG
TAF
KYNG 291142Z 2912/3012 15012G20KT P6SM SCT050 OVC080
      TEMPO 2914/2918 4SM -FZRAPL BKN025 OVC035
     FM291800 19014KT 2SM -DZ BR SCT006 OVC012
      TEMPO 2922/2924 2SM -RASN OVC006
     FM300000 24012G20KT 3/4SM -SN BR OVC002
     FM300500 29012G22KT 3SM -SN BKN006 OVC012=

USA.gov is the U.S. government's official web portal to all federal, state and local government web resources and services.